Time;durP1;ratioP1;P1;durP2;ratioP2;P2;SDS_P1;SDS_P2;PMS_P1;PMS_P2;Temp;Humidity;BMP_temperature;BMP_pressure;BME280_temperature;BME280_humidity;BME280_pressure;Samples;Min_cycle;Max_cycle;Signal;HPM_P1;HPM_P2
2022/12/11 00:04:14;;;;;;;22.05;12.65;;;;;;;5.31;70.88;97790.78;7607406;32;37889;-81
2022/12/11 00:08:30;;;;;;;24.42;12.48;;;;;;;5.29;71.33;97785.66;7607405;32;37990;-81
2022/12/11 00:12:46;;;;;;;22.83;13.13;;;;;;;4.93;73.01;97779.81;7607468;32;40185;-81
2022/12/11 00:17:03;;;;;;;25.55;13.32;;;;;;;4.68;74.36;97773.53;7607387;32;40865;-81
2022/12/11 00:21:19;;;;;;;24.87;13.35;;;;;;;5.13;72.26;97773.41;7606951;32;38766;-82
2022/12/11 00:25:39;;;;;;;24.85;13.07;;;;;;;5.18;72.19;97765.25;7604651;32;37475;-81
2022/12/11 00:29:56;;;;;;;24.75;13.18;;;;;;;4.92;72.43;97753.91;7603946;32;39200;-81
2022/12/11 00:34:12;;;;;;;23.95;13.13;;;;;;;4.74;73.96;97747.28;7603852;32;39722;-82
2022/12/11 00:38:28;;;;;;;25.65;12.95;;;;;;;5.28;71.75;97748.94;7603947;32;37887;-82
2022/12/11 00:42:44;;;;;;;24.83;13.90;;;;;;;5.43;70.64;97731.72;7607293;32;37230;-82
2022/12/11 00:47:00;;;;;;;26.35;13.60;;;;;;;5.29;70.98;97738.94;7606154;32;40057;-82
2022/12/11 00:51:17;;;;;;;28.70;13.20;;;;;;;4.82;72.59;97742.09;7606691;32;40071;-81
2022/12/11 00:55:38;;;;;;;22.50;12.77;;;;;;;4.54;72.92;97742.91;7606844;32;38648;-82
2022/12/11 00:59:54;;;;;;;24.90;13.25;;;;;;;4.44;72.71;97738.37;7606811;32;36894;-82
2022/12/11 01:04:10;;;;;;;21.98;12.60;;;;;;;4.67;72.25;97737.66;7606759;32;40079;-81
2022/12/11 01:08:26;;;;;;;22.98;12.15;;;;;;;5.02;71.35;97745.69;7606785;32;40779;-81
2022/12/11 01:12:42;;;;;;;24.55;11.88;;;;;;;4.66;72.53;97746.81;7606748;32;37870;-81
2022/12/11 01:16:58;;;;;;;24.90;12.25;;;;;;;4.86;71.38;97745.84;7606754;32;38021;-82
2022/12/11 01:21:15;;;;;;;21.48;12.32;;;;;;;5.06;70.47;97735.94;7606066;32;40212;-81
2022/12/11 01:25:32;;;;;;;17.83;10.23;;;;;;;5.15;69.64;97736.09;7606565;32;41066;-82
2022/12/11 01:29:48;;;;;;;20.90;11.02;;;;;;;4.78;70.81;97732.97;7606446;32;38374;-82
2022/12/11 01:34:04;;;;;;;19.80;10.93;;;;;;;4.83;70.90;97727.50;7606555;32;37212;-82
2022/12/11 01:38:20;;;;;;;22.40;10.45;;;;;;;4.81;70.36;97747.78;7606332;32;40099;-81
2022/12/11 01:42:37;;;;;;;20.00;10.80;;;;;;;4.61;71.27;97748.78;7606377;32;40088;-82
2022/12/11 01:46:53;;;;;;;16.67;9.60;;;;;;;3.66;73.79;97750.72;7606257;32;38616;-81
2022/12/11 01:51:09;;;;;;;20.52;9.70;;;;;;;4.13;72.73;97758.25;7606040;32;38141;-82
2022/12/11 01:55:25;;;;;;;19.15;10.30;;;;;;;3.57;74.11;97759.38;7605290;32;39416;-82
2022/12/11 01:59:45;;;;;;;18.77;10.70;;;;;;;3.35;74.86;97765.09;7604642;32;40659;-81
2022/12/11 02:04:01;;;;;;;20.45;10.48;;;;;;;3.76;73.45;97764.94;7605037;32;38608;-82
2022/12/11 02:08:18;;;;;;;16.58;9.68;;;;;;;3.54;74.03;97768.00;7606114;32;37245;-80
2022/12/11 02:12:41;;;;;;;17.05;9.75;;;;;;;3.56;73.65;97767.72;7606385;32;40126;-81
2022/12/11 02:17:13;;;;;;;17.33;9.77;;;;;;;3.55;73.54;97784.97;7605023;32;39873;-82
2022/12/11 02:21:39;;;;;;;17.58;9.10;;;;;;;3.08;74.62;97778.88;7604818;32;36147;-81
2022/12/11 02:26:25;;;;;;;16.35;9.25;;;;;;;2.77;75.41;97787.00;7604979;32;37774;-81
2022/12/11 02:30:42;;;;;;;16.80;8.90;;;;;;;2.59;76.35;97782.97;7604866;32;39375;-82
2022/12/11 02:35:11;;;;;;;16.00;9.23;;;;;;;3.01;74.32;97767.59;7604745;32;40059;-81
2022/12/11 02:39:28;;;;;;;15.70;8.13;;;;;;;3.01;73.11;97775.69;7605608;32;37581;-79
2022/12/11 02:43:46;;;;;;;15.05;8.38;;;;;;;2.85;72.64;97774.91;7605828;32;37839;-82
2022/12/11 02:48:04;;;;;;;13.98;7.53;;;;;;;2.47;74.28;97769.00;7604107;32;39405;-82
2022/12/11 02:52:23;;;;;;;13.02;6.87;;;;;;;2.76;73.09;97768.44;7604451;32;40011;-81
2022/12/11 02:57:15;;;;;;;12.10;6.70;;;;;;;2.72;73.14;97754.72;7605632;32;36768;-82
2022/12/11 03:01:31;;;;;;;12.82;7.25;;;;;;;1.96;75.22;97758.16;7605277;32;37175;-81
2022/12/11 03:05:48;;;;;;;13.13;7.28;;;;;;;2.38;73.48;97749.06;7604303;32;39142;-81
2022/12/11 03:10:06;;;;;;;10.63;6.12;;;;;;;2.34;73.52;97748.78;7604314;32;39895;-81
2022/12/11 03:14:22;;;;;;;11.52;6.45;;;;;;;2.21;73.54;97744.75;7605087;32;39915;-81
2022/12/11 03:18:50;;;;;;;10.02;6.18;;;;;;;2.15;73.92;97731.56;7604966;32;38201;-81
2022/12/11 03:23:12;;;;;;;11.55;6.68;;;;;;;2.02;74.11;97730.22;7605196;32;39397;-81
2022/12/11 03:27:46;;;;;;;9.07;5.90;;;;;;;1.67;75.34;97731.72;7604970;32;39995;-81
2022/12/11 03:32:18;;;;;;;10.98;6.03;;;;;;;1.98;74.35;97739.88;7604821;32;38038;-81
2022/12/11 03:36:38;;;;;;;9.68;5.97;;;;;;;2.31;73.10;97733.22;7604617;32;37222;-81
2022/12/11 03:40:57;;;;;;;10.73;5.93;;;;;;;2.14;73.45;97738.84;7603621;32;40063;-81
2022/12/11 03:45:15;;;;;;;9.18;6.05;;;;;;;1.94;74.07;97730.75;7603098;32;39895;-81
2022/12/11 03:49:36;;;;;;;9.20;5.68;;;;;;;2.10;73.71;97737.75;7603203;32;36695;-81
2022/12/11 03:53:52;;;;;;;8.30;5.65;;;;;;;1.52;75.03;97731.69;7604246;32;37722;-81
2022/12/11 03:58:08;;;;;;;9.80;5.95;;;;;;;1.60;75.05;97739.25;7603033;32;40105;-81
2022/12/11 04:02:24;;;;;;;7.40;5.37;;;;;;;2.10;73.78;97734.25;7604188;32;40654;-81
2022/12/11 04:06:40;;;;;;;10.68;5.40;;;;;;;2.25;72.87;97739.66;7603979;32;37758;-80
2022/12/11 04:15:31;;;;;;;9.20;5.70;;;;;;;1.31;76.91;97742.34;7604064;32;40827;-80
2022/12/11 04:24:22;;;;;;;8.18;5.80;;;;;;;1.00;78.17;97752.09;7607400;32;37749;-81
2022/12/11 04:28:39;;;;;;;10.85;5.95;;;;;;;1.47;77.05;97762.03;7607331;32;37806;-81
2022/12/11 04:32:55;;;;;;;11.20;5.80;;;;;;;0.97;79.44;97766.03;7607227;32;39361;-81
2022/12/11 04:37:11;;;;;;;8.32;5.55;;;;;;;1.29;77.73;97777.53;7606933;32;39695;-80
2022/12/11 04:41:28;;;;;;;7.90;5.37;;;;;;;1.76;76.01;97773.16;7606811;32;37553;-81
2022/12/11 04:45:44;;;;;;;8.23;5.50;;;;;;;2.00;74.95;97784.25;7607123;32;36939;-80
2022/12/11 04:50:00;;;;;;;8.02;5.55;;;;;;;1.52;76.30;97794.28;7607056;32;39359;-81
2022/12/11 04:54:16;;;;;;;8.48;5.40;;;;;;;1.92;75.06;97792.00;7607063;32;39857;-81
2022/12/11 04:58:34;;;;;;;8.93;5.43;;;;;;;1.82;74.60;97811.59;7607036;32;37742;-81
2022/12/11 05:02:50;;;;;;;8.88;5.12;;;;;;;2.10;74.37;97807.63;7607031;32;36970;-81
2022/12/11 05:07:08;;;;;;;9.45;5.53;;;;;;;1.99;74.81;97806.00;7606942;32;39440;-81
2022/12/11 05:11:24;;;;;;;8.55;5.43;;;;;;;1.98;74.61;97813.25;7606481;32;40916;-81
2022/12/11 05:15:40;;;;;;;9.52;5.78;;;;;;;1.62;75.64;97823.88;7606743;32;38716;-80
2022/12/11 05:19:56;;;;;;;8.60;5.37;;;;;;;1.81;76.17;97831.47;7606806;32;36871;-81
2022/12/11 05:24:12;;;;;;;6.30;5.07;;;;;;;1.82;75.75;97831.19;7606634;32;40213;-81
2022/12/11 05:28:33;;;;;;;7.45;5.10;;;;;;;1.65;76.98;97846.69;7606592;32;40014;-81
2022/12/11 05:32:49;;;;;;;8.23;5.62;;;;;;;2.09;75.11;97849.03;7606125;32;37779;-81
2022/12/11 05:37:05;;;;;;;9.43;5.53;;;;;;;2.32;73.72;97846.94;7606383;32;37104;-81
2022/12/11 05:41:24;;;;;;;8.48;5.60;;;;;;;1.94;75.18;97859.75;7606137;32;39134;-80
2022/12/11 05:45:40;;;;;;;8.10;5.45;;;;;;;2.06;74.84;97855.75;7606562;32;39221;-81
2022/12/11 05:49:56;;;;;;;9.88;5.60;;;;;;;1.84;76.08;97858.59;7606362;32;38679;-81
2022/12/11 05:54:13;;;;;;;7.45;5.32;;;;;;;1.79;76.14;97855.91;7606505;32;36951;-81
2022/12/11 05:58:30;;;;;;;11.20;5.50;;;;;;;1.61;76.86;97857.16;7606390;32;39322;-81
2022/12/11 06:02:46;;;;;;;10.18;5.90;;;;;;;1.52;76.87;97852.53;7606256;32;40009;-81
2022/12/11 06:07:02;;;;;;;7.93;5.47;;;;;;;1.64;76.76;97869.28;7606113;32;38519;-81
2022/12/11 06:11:19;;;;;;;9.25;5.95;;;;;;;1.62;76.33;97863.34;7605730;32;38044;-81
2022/12/11 06:15:39;;;;;;;10.30;6.12;;;;;;;2.05;74.87;97858.69;7606220;32;40902;-81
2022/12/11 06:19:55;;;;;;;10.18;5.97;;;;;;;1.74;75.72;97872.00;7606062;32;39880;-83
2022/12/11 06:24:11;;;;;;;11.52;6.35;;;;;;;1.76;76.28;97888.69;7604888;32;37716;-80
2022/12/11 06:28:27;;;;;;;10.68;6.18;;;;;;;2.29;76.62;97885.13;7605990;32;37150;-74
2022/12/11 06:32:44;;;;;;;11.50;6.70;;;;;;;1.60;76.83;97905.78;7606051;32;39188;-81
2022/12/11 06:37:00;;;;;;;10.48;6.47;;;;;;;1.56;76.45;97926.16;7605596;32;39963;-81
2022/12/11 06:41:16;;;;;;;10.20;6.28;;;;;;;2.08;75.60;97928.06;7605549;32;38535;-83
2022/12/11 06:45:32;;;;;;;12.27;6.57;;;;;;;2.06;75.66;97930.22;7604678;32;37206;-83
2022/12/11 06:49:50;;;;;;;8.95;6.53;;;;;;;1.95;74.86;97928.53;7605701;32;39460;-82
2022/12/11 06:54:07;;;;;;;10.43;6.05;;;;;;;2.02;74.25;97923.75;7605736;32;40877;-83
2022/12/11 06:58:23;;;;;;;9.32;6.00;;;;;;;1.67;75.13;97933.22;7605650;32;37838;-83
2022/12/11 07:02:39;;;;;;;10.98;6.40;;;;;;;2.47;73.53;97934.91;7605697;32;37019;-83
2022/12/11 07:06:56;;;;;;;11.30;6.62;;;;;;;2.41;71.81;97937.59;7605663;32;39387;-84
2022/12/11 07:11:14;;;;;;;11.18;5.85;;;;;;;2.55;71.49;97948.69;7604967;32;39640;-84
2022/12/11 07:15:30;;;;;;;8.77;5.20;;;;;;;2.15;73.03;97950.13;7605457;32;37702;-82
2022/12/11 07:19:51;;;;;;;10.23;6.12;;;;;;;2.38;72.15;97958.84;7605399;32;37096;-82
2022/12/11 07:24:07;;;;;;;11.55;6.10;;;;;;;2.34;72.14;97960.44;7605191;32;40102;-83
2022/12/11 07:28:23;;;;;;;7.57;5.57;;;;;;;2.41;71.97;97963.69;7604710;32;39995;-83
2022/12/11 07:32:40;;;;;;;9.95;6.15;;;;;;;2.31;72.23;97963.66;7604658;32;38462;-84
2022/12/11 07:36:56;;;;;;;10.90;6.53;;;;;;;2.28;71.49;97966.84;7604572;32;36934;-82
2022/12/11 07:41:14;;;;;;;12.57;6.30;;;;;;;2.05;72.46;97979.66;7604832;32;39368;-81
2022/12/11 07:45:30;;;;;;;9.73;5.65;;;;;;;1.84;72.75;97997.53;7604705;32;40748;-81
2022/12/11 07:49:49;;;;;;;8.68;5.00;;;;;;;1.85;72.52;97994.59;7604505;32;37941;-81
2022/12/11 07:54:07;;;;;;;10.18;5.18;;;;;;;2.17;72.00;98006.34;7604581;32;37145;-82
2022/12/11 07:58:24;;;;;;;10.30;5.50;;;;;;;2.28;70.94;97996.44;7607634;32;40575;-83
2022/12/11 08:02:40;;;;;;;10.45;5.10;;;;;;;2.38;70.76;98001.88;7605909;32;40506;-82
2022/12/11 08:06:57;;;;;;;11.80;5.55;;;;;;;2.38;70.74;98007.25;7606439;32;38552;-82
2022/12/11 08:11:14;;;;;;;8.65;4.90;;;;;;;2.68;70.46;98006.56;7604464;32;37811;-82
2022/12/11 08:15:30;;;;;;;10.90;5.00;;;;;;;2.34;70.34;98015.03;7604371;32;41006;-82
2022/12/11 08:19:47;;;;;;;9.93;5.85;;;;;;;2.72;69.52;98028.38;7606458;32;40936;-82
2022/12/11 08:24:03;;;;;;;11.80;5.78;;;;;;;2.63;68.93;98030.75;7605720;32;38573;-83
2022/12/11 08:28:19;;;;;;;9.10;5.35;;;;;;;2.50;70.19;98047.38;7605358;32;37076;-81
2022/12/11 08:32:35;;;;;;;9.13;5.03;;;;;;;2.31;70.68;98052.38;7605498;32;39426;-83
2022/12/11 08:36:51;;;;;;;10.85;5.68;;;;;;;2.46;70.36;98051.66;7601496;32;40731;-82
2022/12/11 08:41:16;;;;;;;11.07;5.37;;;;;;;2.23;70.62;98056.41;7603808;32;37780;-82
2022/12/11 08:45:32;;;;;;;9.75;5.53;;;;;;;2.41;70.06;98072.06;7605281;32;37928;-81
2022/12/11 08:49:49;;;;;;;8.93;4.87;;;;;;;2.80;67.96;98082.50;7605937;32;40334;-81
2022/12/11 08:54:05;;;;;;;6.80;4.40;;;;;;;2.31;69.04;98109.69;7601108;32;40839;-81
2022/12/11 08:58:21;;;;;;;9.38;5.50;;;;;;;2.27;69.53;98095.13;7606829;32;37730;-81
2022/12/11 09:02:37;;;;;;;8.68;4.90;;;;;;;2.54;69.07;98113.06;7607210;32;37259;-82
2022/12/11 09:06:53;;;;;;;8.63;4.93;;;;;;;2.60;69.30;98112.84;7606165;32;40203;-82
2022/12/11 09:11:12;;;;;;;7.45;4.53;;;;;;;3.11;67.82;98116.81;7606853;32;39986;-82
2022/12/11 09:15:28;;;;;;;7.43;5.25;;;;;;;2.42;69.34;98115.94;7606240;32;36728;-81
2022/12/11 09:19:44;;;;;;;11.07;4.95;;;;;;;2.75;68.05;98113.97;7605021;32;37937;-83
2022/12/11 09:24:01;;;;;;;7.50;5.00;;;;;;;2.34;68.58;98116.41;7605630;32;40097;-82
2022/12/11 09:28:17;;;;;;;8.90;5.37;;;;;;;2.54;68.79;98111.16;7606638;32;40731;-81
2022/12/11 09:32:33;;;;;;;8.35;4.97;;;;;;;2.50;68.66;98106.56;7606280;32;37856;-82
2022/12/11 09:36:49;;;;;;;7.03;4.68;;;;;;;3.10;67.97;98117.87;7605579;32;37846;-82
2022/12/11 09:41:21;;;;;;;8.05;5.18;;;;;;;2.71;66.87;98123.63;7606401;32;40039;-83
2022/12/11 09:45:37;;;;;;;6.12;4.65;;;;;;;2.87;67.23;98121.84;7606604;32;41000;-83
2022/12/11 09:50:13;;;;;;;6.55;4.32;;;;;;;3.26;66.28;98116.88;7605903;32;37890;-85
2022/12/11 09:54:29;;;;;;;8.40;4.57;;;;;;;3.24;65.30;98115.50;7604956;32;37008;-84
2022/12/11 09:59:22;;;;;;;6.75;4.55;;;;;;;2.97;66.29;98127.28;7605975;32;39181;-83
2022/12/11 10:04:00;;;;;;;10.55;5.53;;;;;;;2.75;67.06;98127.44;7606289;32;40948;-84
2022/12/11 10:08:28;;;;;;;11.73;5.35;;;;;;;2.98;66.18;98128.88;7605902;32;38565;-83
2022/12/11 10:13:13;;;;;;;14.13;7.05;;;;;;;2.91;65.74;98120.22;7602436;32;38053;-84
2022/12/11 10:17:32;;;;;;;12.43;5.90;;;;;;;3.18;65.20;98112.78;7603050;32;40106;-84
2022/12/11 10:21:50;;;;;;;12.37;6.57;;;;;;;2.93;64.90;98112.69;7604332;32;40060;-84
2022/12/11 10:26:16;;;;;;;10.55;5.97;;;;;;;2.75;64.65;98108.59;7604569;32;36711;-83
2022/12/11 10:30:37;;;;;;;12.15;6.80;;;;;;;2.70;65.32;98108.56;7604141;32;37028;-84
2022/12/11 10:35:04;;;;;;;7.93;5.18;;;;;;;2.99;64.56;98106.28;7597649;32;40005;-81
2022/12/11 10:39:21;;;;;;;10.43;4.62;;;;;;;2.82;64.91;98117.22;7603194;32;40471;-83
2022/12/11 10:43:44;;;;;;;5.70;4.20;;;;;;;2.84;65.10;98111.59;7604681;32;37494;-83
2022/12/11 10:48:10;;;;;;;5.62;4.10;;;;;;;2.93;64.22;98108.16;7604530;32;37123;-81
2022/12/11 10:52:31;;;;;;;6.30;4.03;;;;;;;2.79;64.44;98125.81;7603615;32;39371;-82
2022/12/11 10:56:47;;;;;;;7.25;4.32;;;;;;;2.77;64.38;98136.84;7605102;32;40766;-82
2022/12/11 11:01:13;;;;;;;9.25;5.70;;;;;;;3.07;62.86;98150.72;7605035;32;38503;-83
2022/12/11 11:05:36;;;;;;;10.98;5.57;;;;;;;2.98;63.13;98145.84;7605592;32;37186;-82
2022/12/11 11:10:14;;;;;;;11.80;5.55;;;;;;;3.30;62.41;98142.19;7604879;32;40242;-83
2022/12/11 11:14:30;;;;;;;10.77;5.97;;;;;;;2.78;63.18;98138.47;7604963;32;39868;-82
2022/12/11 11:18:53;;;;;;;8.32;4.78;;;;;;;2.61;64.06;98157.47;7604103;32;38642;-81
2022/12/11 11:23:13;;;;;;;10.40;6.00;;;;;;;2.93;62.23;98153.91;7604977;32;37049;-84
2022/12/11 11:27:48;;;;;;;6.95;5.15;;;;;;;3.01;62.62;98155.28;7603742;32;39434;-85
2022/12/11 11:32:37;;;;;;;8.35;5.28;;;;;;;2.62;62.84;98153.72;7601090;32;40065;-83
2022/12/11 11:36:59;;;;;;;8.10;4.82;;;;;;;2.65;62.46;98151.59;7602947;32;38647;-82
2022/12/11 11:41:35;;;;;;;9.68;5.15;;;;;;;2.97;62.16;98149.59;7604588;32;37767;-79
2022/12/11 11:46:13;;;;;;;8.40;5.03;;;;;;;2.43;63.40;98149.81;7602172;32;40091;-82
2022/12/11 11:50:34;;;;;;;9.80;5.62;;;;;;;2.92;61.75;98146.09;7604303;32;39668;-84
2022/12/11 11:55:18;;;;;;;10.15;5.90;;;;;;;2.73;62.49;98164.56;7603414;32;38607;-81
2022/12/11 11:59:54;;;;;;;8.70;4.93;;;;;;;3.33;61.32;98163.22;7600711;32;36469;-81
2022/12/11 12:04:10;;;;;;;9.57;4.90;;;;;;;3.00;63.05;98159.84;7603257;32;39850;-81
2022/12/11 12:08:52;;;;;;;7.82;5.03;;;;;;;3.43;61.34;98177.78;7603033;32;40116;-80
2022/12/11 12:13:36;;;;;;;6.53;4.82;;;;;;;3.95;59.46;98180.34;7602593;32;38600;-82
2022/12/11 12:18:28;;;;;;;6.75;4.37;;;;;;;3.80;59.18;98191.09;7602809;32;37813;-81
2022/12/11 12:23:07;;;;;;;8.45;4.72;;;;;;;3.52;59.35;98203.16;7602756;32;39350;-81
2022/12/11 12:27:29;;;;;;;9.00;4.68;;;;;;;3.41;59.93;98196.91;7603494;32;40817;-81
2022/12/11 12:32:21;;;;;;;6.07;4.18;;;;;;;3.63;59.81;98194.03;7602573;32;39167;-81
2022/12/11 12:36:41;;;;;;;6.40;4.25;;;;;;;3.48;59.22;98189.38;7602404;32;38577;-79
2022/12/11 12:41:15;;;;;;;6.43;4.57;;;;;;;3.78;59.13;98189.72;7602419;32;39412;-80
2022/12/11 12:45:49;;;;;;;6.78;4.50;;;;;;;3.82;58.99;98191.62;7606972;32;40846;-80
2022/12/11 12:50:15;;;;;;;6.68;4.55;;;;;;;4.10;59.02;98193.00;7606291;32;37516;-81
2022/12/11 12:54:33;;;;;;;6.97;4.32;;;;;;;3.68;58.92;98188.63;7607239;32;36716;-82
2022/12/11 12:58:51;;;;;;;7.25;4.50;;;;;;;3.69;58.33;98186.75;7606863;32;39310;-80
2022/12/11 13:03:20;;;;;;;6.07;4.50;;;;;;;3.71;58.86;98182.72;7604906;32;39874;-81
2022/12/11 13:07:47;;;;;;;7.20;4.90;;;;;;;4.30;57.75;98197.63;7606362;32;38264;-81
2022/12/11 13:12:14;;;;;;;7.50;4.60;;;;;;;4.08;57.45;98205.97;7596340;32;36670;-81
2022/12/11 13:16:42;;;;;;;6.18;4.22;;;;;;;3.93;58.64;98209.47;7604979;32;40223;-82
2022/12/11 13:20:58;;;;;;;7.93;4.72;;;;;;;4.00;57.33;98213.78;7605889;32;40134;-81
2022/12/11 13:25:30;;;;;;;9.55;5.05;;;;;;;4.06;57.25;98213.50;7605553;32;38558;-81
2022/12/11 13:29:46;;;;;;;7.45;4.78;;;;;;;3.69;57.97;98225.31;7606879;32;37256;-82
2022/12/11 13:34:20;;;;;;;6.70;5.00;;;;;;;4.32;56.43;98240.53;7606198;32;40140;-81
2022/12/11 13:38:37;;;;;;;8.18;4.85;;;;;;;4.26;55.71;98239.72;7604811;32;39671;-82
2022/12/11 13:42:56;;;;;;;8.15;5.22;;;;;;;3.85;56.90;98236.12;7605189;32;38492;-83
2022/12/11 13:47:14;;;;;;;10.43;5.32;;;;;;;4.21;56.05;98257.75;7606597;32;37474;-81
2022/12/11 13:51:33;;;;;;;10.02;5.62;;;;;;;4.20;55.49;98269.66;7604936;32;39220;-81
2022/12/11 13:56:04;;;;;;;9.15;5.37;;;;;;;3.57;56.82;98273.25;7601130;32;153193;-81
2022/12/11 14:00:31;;;;;;;9.40;5.65;;;;;;;3.23;57.49;98264.72;7605082;32;37886;-82
2022/12/11 14:04:50;;;;;;;8.10;5.12;;;;;;;3.92;55.71;98277.13;7605661;32;36844;-81
2022/12/11 14:09:07;;;;;;;9.73;5.20;;;;;;;3.38;56.79;98279.06;7605028;32;39288;-82
2022/12/11 14:13:26;;;;;;;9.43;6.45;;;;;;;3.15;58.48;98280.28;7605057;32;40788;-82
2022/12/11 14:17:43;;;;;;;9.18;5.55;;;;;;;3.64;56.72;98287.28;7605185;32;37884;-82
2022/12/11 14:22:06;;;;;;;10.73;5.70;;;;;;;3.38;57.32;98289.84;7605226;32;37063;-82
2022/12/11 14:26:28;;;;;;;11.18;6.00;;;;;;;2.89;57.93;98295.47;7606233;32;39328;-82
2022/12/11 14:30:50;;;;;;;10.77;6.50;;;;;;;3.48;57.12;98301.75;7606190;32;38865;-81
2022/12/11 14:35:15;;;;;;;9.90;6.43;;;;;;;3.05;57.14;98317.91;7606210;32;37882;-82
2022/12/11 14:39:35;;;;;;;8.52;5.50;;;;;;;3.43;54.84;98320.56;7605964;32;37086;-81
2022/12/11 14:43:54;;;;;;;11.38;6.68;;;;;;;3.37;56.16;98331.31;7606117;32;39350;-82
2022/12/11 14:48:22;;;;;;;10.80;6.15;;;;;;;3.21;56.90;98343.09;7605972;32;40807;-80
2022/12/11 14:52:42;;;;;;;13.40;7.55;;;;;;;2.67;57.78;98351.25;7605844;32;37790;-81
2022/12/11 14:57:00;;;;;;;13.93;7.60;;;;;;;3.33;56.89;98348.28;7604685;32;37846;-81
2022/12/11 15:01:28;;;;;;;12.27;6.72;;;;;;;3.37;57.14;98339.41;7605857;32;38391;-82
2022/12/11 15:05:53;;;;;;;10.25;7.32;;;;;;;3.05;58.70;98341.34;7604476;32;40884;-82
2022/12/11 15:10:23;;;;;;;14.60;7.70;;;;;;;2.74;60.14;98347.31;7605577;32;37863;-82
2022/12/11 15:15:05;;;;;;;15.13;7.75;;;;;;;3.09;59.23;98358.62;7605520;32;36925;-82
2022/12/11 15:19:33;;;;;;;12.52;8.18;;;;;;;2.36;60.97;98372.47;7604481;32;39438;-81
2022/12/11 15:23:54;;;;;;;14.40;7.37;;;;;;;2.39;60.67;98390.81;7605370;32;40049;-82
2022/12/11 15:28:29;;;;;;;14.38;7.75;;;;;;;2.78;59.49;98390.66;7605266;32;37534;-81
2022/12/11 15:32:45;;;;;;;12.50;7.43;;;;;;;2.50;60.24;98381.78;7605105;32;37108;-81
2022/12/11 15:37:01;;;;;;;18.17;8.90;;;;;;;2.47;60.01;98393.03;7604828;32;39484;-81
2022/12/11 15:41:20;;;;;;;19.90;8.68;;;;;;;2.29;60.39;98391.50;7604516;32;40528;-82
2022/12/11 15:45:37;;;;;;;15.55;8.57;;;;;;;1.90;61.14;98404.19;7603714;32;37620;-82
2022/12/11 15:49:58;;;;;;;11.73;6.47;;;;;;;2.21;59.85;98390.06;7604777;32;37126;-81
2022/12/11 15:54:14;;;;;;;10.38;6.62;;;;;;;2.53;58.80;98392.00;7603637;32;39376;-81
2022/12/11 15:58:31;;;;;;;14.55;7.95;;;;;;;2.01;59.24;98392.50;7604464;32;39978;-81
2022/12/11 16:02:47;;;;;;;14.30;7.10;;;;;;;2.27;58.52;98390.13;7604374;32;37879;-82
2022/12/11 16:07:04;;;;;;;11.10;6.45;;;;;;;1.95;58.26;98401.56;7603235;32;36838;-81
2022/12/11 16:11:21;;;;;;;11.52;6.53;;;;;;;1.63;59.21;98399.53;7604359;32;39381;-81
2022/12/11 16:15:39;;;;;;;9.30;6.45;;;;;;;2.11;58.15;98394.53;7604125;32;39890;-81
2022/12/11 16:19:55;;;;;;;12.68;7.00;;;;;;;2.33;57.11;98398.00;7606482;32;37712;-81
2022/12/11 16:24:11;;;;;;;12.43;6.62;;;;;;;2.03;57.99;98409.19;7607681;32;37385;-82
2022/12/11 16:28:27;;;;;;;10.80;6.90;;;;;;;2.00;57.17;98423.13;7607588;32;40087;-83
2022/12/11 16:32:43;;;;;;;11.02;6.62;;;;;;;1.82;57.87;98422.38;7607432;32;40114;-82
2022/12/11 16:37:00;;;;;;;11.98;6.82;;;;;;;1.98;57.48;98422.56;7607263;32;38475;-81
2022/12/11 16:41:16;;;;;;;10.60;6.43;;;;;;;2.09;56.99;98424.34;7607473;32;38029;-81
2022/12/11 16:45:32;;;;;;;11.23;7.15;;;;;;;1.71;57.73;98436.75;7607399;32;39525;-82
2022/12/11 16:49:49;;;;;;;13.05;7.25;;;;;;;1.60;58.19;98433.06;7607297;32;40813;-81
2022/12/11 16:54:05;;;;;;;13.15;6.90;;;;;;;2.15;57.33;98422.53;7607164;32;37755;-81
2022/12/11 16:58:22;;;;;;;12.90;6.97;;;;;;;2.16;56.92;98430.34;7607435;32;35437;-81
2022/12/11 17:02:38;;;;;;;10.27;6.68;;;;;;;2.17;56.54;98431.16;7607151;32;39847;-82
2022/12/11 17:06:54;;;;;;;11.05;6.85;;;;;;;1.74;57.36;98433.53;7607157;32;39989;-81
2022/12/11 17:11:14;;;;;;;14.43;7.12;;;;;;;1.55;57.74;98434.88;7607067;32;38573;-81
2022/12/11 17:15:30;;;;;;;12.07;6.65;;;;;;;1.49;58.11;98442.88;7607054;32;36886;-81
2022/12/11 17:19:46;;;;;;;15.57;7.40;;;;;;;1.22;58.86;98442.69;7606989;32;39423;-82
2022/12/11 17:24:02;;;;;;;12.68;6.72;;;;;;;1.89;57.50;98430.25;7606943;32;40886;-82
2022/12/11 17:28:19;;;;;;;13.27;6.82;;;;;;;2.07;56.81;98431.84;7606157;32;38571;-81
2022/12/11 17:32:35;;;;;;;14.02;7.28;;;;;;;1.67;57.34;98438.28;7606834;32;37134;-83
2022/12/11 17:36:51;;;;;;;12.07;7.55;;;;;;;1.82;57.46;98440.38;7606599;32;40126;-82
2022/12/11 17:41:09;;;;;;;10.60;6.75;;;;;;;1.56;58.30;98441.88;7606767;32;40911;-82
2022/12/11 17:45:31;;;;;;;11.43;6.43;;;;;;;1.93;57.47;98436.75;7606547;32;37900;-82
2022/12/11 17:49:47;;;;;;;11.85;7.03;;;;;;;1.99;57.26;98448.41;7606627;32;37151;-82
2022/12/11 17:54:04;;;;;;;13.02;7.28;;;;;;;1.83;57.66;98453.56;7606632;32;39174;-82
2022/12/11 17:58:22;;;;;;;12.95;6.87;;;;;;;1.56;57.84;98455.31;7606512;32;40105;-82
2022/12/11 18:02:38;;;;;;;11.65;6.22;;;;;;;1.82;56.77;98454.63;7605371;32;37492;-82
2022/12/11 18:06:54;;;;;;;13.35;7.90;;;;;;;1.74;56.76;98471.16;7606460;32;37115;-82
2022/12/11 18:11:16;;;;;;;18.23;7.80;;;;;;;1.73;57.19;98474.13;7605554;32;40064;-81
2022/12/11 18:15:32;;;;;;;13.20;8.07;;;;;;;1.88;56.81;98467.09;7605765;32;40844;-81
2022/12/11 18:19:48;;;;;;;12.35;7.37;;;;;;;2.13;56.31;98463.09;7616250;32;38665;-81
2022/12/11 18:24:05;;;;;;;11.85;7.28;;;;;;;1.62;57.32;98471.28;7618786;32;37920;-81
2022/12/11 18:28:21;;;;;;;13.10;7.20;;;;;;;1.63;57.21;98472.09;7625703;32;39084;-82
2022/12/11 18:32:37;;;;;;;13.20;7.18;;;;;;;1.77;56.93;98476.03;7605513;32;39979;-81
2022/12/11 18:36:54;;;;;;;11.15;7.00;;;;;;;1.44;57.89;98485.75;7605752;32;37596;-82
2022/12/11 18:41:12;;;;;;;11.45;7.37;;;;;;;1.77;57.23;98484.09;7604280;32;38387;-83
2022/12/11 18:45:29;;;;;;;10.30;6.78;;;;;;;1.39;58.40;98484.87;7600846;32;38988;-82
2022/12/11 18:49:45;;;;;;;10.77;6.80;;;;;;;1.60;57.75;98486.00;7608639;32;40019;-81
2022/12/11 18:54:01;;;;;;;12.85;6.87;;;;;;;1.44;59.22;98485.75;7619593;32;37814;-80
2022/12/11 18:58:18;;;;;;;15.88;7.40;;;;;;;1.76;58.52;98490.56;7603864;32;36972;-82
2022/12/11 19:02:34;;;;;;;12.98;7.20;;;;;;;1.97;57.90;98491.66;7604682;32;39405;-82
2022/12/11 19:06:51;;;;;;;13.62;7.03;;;;;;;1.60;59.23;98496.75;7590824;32;39876;-82
2022/12/11 19:11:07;;;;;;;11.80;6.15;;;;;;;2.06;58.27;98505.50;7603613;32;37750;-82
2022/12/11 19:15:24;;;;;;;10.18;7.03;;;;;;;1.66;58.78;98515.37;7603097;32;37011;-83
2022/12/11 19:19:42;;;;;;;11.88;6.75;;;;;;;1.94;58.44;98523.59;7604196;32;39048;-82
2022/12/11 19:23:58;;;;;;;12.23;7.50;;;;;;;1.97;58.50;98533.88;7604668;32;40458;-83
2022/12/11 19:28:15;;;;;;;14.70;7.07;;;;;;;1.83;58.50;98539.56;7603406;32;37843;-82
2022/12/11 19:32:32;;;;;;;13.55;7.68;;;;;;;2.14;58.12;98544.56;7617743;32;37699;-83
2022/12/11 19:36:51;;;;;;;10.77;6.55;;;;;;;1.96;57.93;98553.72;7629744;32;38983;-83
2022/12/11 19:41:12;;;;;;;11.70;6.75;;;;;;;2.13;58.02;98549.16;7605402;32;39869;-83
2022/12/11 19:45:29;;;;;;;10.98;7.43;;;;;;;2.11;58.20;98545.09;7603612;32;38651;-82
2022/12/11 19:49:47;;;;;;;14.35;7.93;;;;;;;1.75;58.95;98542.66;7603622;32;37483;-82
2022/12/11 19:54:05;;;;;;;11.75;7.15;;;;;;;1.93;58.32;98549.66;7606550;32;39446;-82
2022/12/11 19:58:21;;;;;;;15.88;7.82;;;;;;;2.12;57.70;98550.22;7606275;32;40068;-82
2022/12/11 20:02:38;;;;;;;15.52;9.15;;;;;;;2.21;57.78;98551.41;7606714;32;37445;-83
2022/12/11 20:06:54;;;;;;;17.65;8.90;;;;;;;1.52;59.02;98556.25;7606589;32;37163;-83
2022/12/11 20:11:11;;;;;;;15.05;8.15;;;;;;;1.86;59.00;98549.84;7607130;32;40179;-83
2022/12/11 20:15:39;;;;;;;15.57;9.37;;;;;;;1.80;59.15;98553.50;7606783;32;39993;-83
2022/12/11 20:19:57;;;;;;;14.45;7.40;;;;;;;1.50;60.23;98554.63;7605174;32;37721;-83
2022/12/11 20:24:13;;;;;;;17.85;8.88;;;;;;;1.62;59.96;98557.25;7607152;32;37996;-82
2022/12/11 20:28:29;;;;;;;15.90;9.43;;;;;;;1.70;59.95;98553.31;7614445;32;40696;-82
2022/12/11 20:32:46;;;;;;;15.70;8.80;;;;;;;1.01;62.69;98558.84;7606902;32;39601;-83
2022/12/11 20:37:02;;;;;;;20.67;10.93;;;;;;;1.32;62.29;98565.59;7606145;32;38453;-82
2022/12/11 20:41:25;;;;;;;17.87;10.95;;;;;;;1.16;63.75;98563.69;7614621;32;37555;-83